createdAt,value
2022-12-28T00:02:16.706Z,5.90
2022-12-28T00:04:43.463Z,5.90
2022-12-28T00:07:10.352Z,5.90
2022-12-28T00:09:37.019Z,5.90
2022-12-28T00:12:03.886Z,5.80
2022-12-28T00:14:30.639Z,5.80
2022-12-28T00:16:57.441Z,5.80
2022-12-28T00:19:24.155Z,5.80
2022-12-28T00:21:54.143Z,5.80
2022-12-28T00:24:23.407Z,5.80
2022-12-28T00:26:50.444Z,5.80
2022-12-28T00:29:17.895Z,5.80
2022-12-28T00:31:46.255Z,5.70
2022-12-28T00:34:13.154Z,5.70
2022-12-28T00:37:10.049Z,5.70
2022-12-28T00:39:26.551Z,5.60
2022-12-28T00:41:53.340Z,5.70
2022-12-28T00:44:20.123Z,5.70
2022-12-28T00:46:46.898Z,5.70
2022-12-28T00:49:13.706Z,5.70
2022-12-28T00:51:40.522Z,5.60
2022-12-28T00:54:07.337Z,5.60
2022-12-28T00:56:34.045Z,5.60
2022-12-28T00:59:00.822Z,5.60
2022-12-28T01:01:28.911Z,5.60
2022-12-28T01:03:57.451Z,5.60
2022-12-28T01:06:24.239Z,5.60
2022-12-28T01:08:50.955Z,5.60
2022-12-28T01:11:23.445Z,5.70
2022-12-28T01:13:52.369Z,5.70
2022-12-28T01:16:23.576Z,5.70
2022-12-28T01:18:53.636Z,5.70
2022-12-28T01:21:22.347Z,5.60
2022-12-28T01:23:49.788Z,5.60
2022-12-28T01:26:16.851Z,5.60
2022-12-28T01:28:43.553Z,5.50
2022-12-28T01:31:16.366Z,5.60
2022-12-28T01:33:43.922Z,5.50
2022-12-28T01:36:20.276Z,5.50
2022-12-28T01:41:20.290Z,5.40
2022-12-28T01:44:10.296Z,5.40
2022-12-28T01:47:02.886Z,5.40
2022-12-28T01:49:42.000Z,5.30
2022-12-28T01:52:21.101Z,5.30
2022-12-28T01:54:52.449Z,5.30
2022-12-28T01:57:21.217Z,5.30
2022-12-28T01:59:54.803Z,5.30
2022-12-28T02:02:22.685Z,5.30
2022-12-28T02:04:49.929Z,5.30
2022-12-28T02:07:26.339Z,5.30
2022-12-28T02:10:42.645Z,5.30
2022-12-28T02:12:40.592Z,5.40
2022-12-28T02:15:07.903Z,5.40
2022-12-28T02:17:34.657Z,5.40
2022-12-28T02:20:01.562Z,5.40
2022-12-28T02:23:03.850Z,6.50
2022-12-28T02:25:43.371Z,5.40
2022-12-28T02:28:21.803Z,5.40
2022-12-28T02:31:01.160Z,5.40
2022-12-28T02:33:37.827Z,5.50
2022-12-28T02:36:18.273Z,5.50
2022-12-28T02:39:03.124Z,5.50
2022-12-28T02:41:32.243Z,5.50
2022-12-28T02:44:00.302Z,5.50
2022-12-28T02:46:49.649Z,5.50
2022-12-28T02:49:37.809Z,5.50
2022-12-28T02:52:10.732Z,5.50
2022-12-28T02:55:16.039Z,5.50
2022-12-28T02:58:11.375Z,6.00
2022-12-28T03:00:44.075Z,5.60
2022-12-28T03:03:39.377Z,5.60
2022-12-28T03:06:41.525Z,5.60
2022-12-28T03:09:23.998Z,5.60
2022-12-28T03:12:00.394Z,5.60
2022-12-28T03:14:36.006Z,5.60
2022-12-28T03:17:23.283Z,5.60
2022-12-28T03:20:23.503Z,5.60
2022-12-28T03:23:10.157Z,5.50
2022-12-28T03:26:00.662Z,5.50
2022-12-28T03:28:48.389Z,5.50
2022-12-28T03:31:19.714Z,5.50
2022-12-28T03:33:49.090Z,5.50
2022-12-28T03:36:50.384Z,5.50
2022-12-28T03:39:31.945Z,5.50
2022-12-28T03:42:32.328Z,5.60
2022-12-28T03:45:46.213Z,5.60
2022-12-28T03:48:10.397Z,5.70
2022-12-28T03:50:42.802Z,5.70
2022-12-28T03:53:10.795Z,5.70
2022-12-28T03:55:38.011Z,5.70
2022-12-28T03:58:06.220Z,5.70
2022-12-28T04:00:33.497Z,5.70
2022-12-28T04:03:00.357Z,5.70
2022-12-28T04:05:27.154Z,5.70
2022-12-28T04:07:53.872Z,5.70
2022-12-28T04:10:20.595Z,5.70
2022-12-28T04:12:47.317Z,5.70
2022-12-28T04:15:14.213Z,5.70
2022-12-28T04:17:40.956Z,5.70
2022-12-28T04:20:08.209Z,5.70
2022-12-28T04:22:34.941Z,5.80
2022-12-28T04:25:01.894Z,5.80
2022-12-28T04:27:28.633Z,5.80
2022-12-28T04:29:55.438Z,5.90
2022-12-28T04:32:22.146Z,5.80
2022-12-28T04:34:49.187Z,5.80
2022-12-28T04:37:16.004Z,5.90
2022-12-28T04:39:54.800Z,5.80
2022-12-28T04:42:26.011Z,5.90
2022-12-28T04:44:52.649Z,5.90
2022-12-28T04:47:19.291Z,5.90
2022-12-28T04:49:46.033Z,5.90
2022-12-28T04:52:12.874Z,5.90
2022-12-28T04:54:39.556Z,5.90
2022-12-28T04:57:06.927Z,6.00
2022-12-28T04:59:33.697Z,6.00
2022-12-28T05:02:00.833Z,6.00
2022-12-28T05:04:27.647Z,6.00
2022-12-28T05:06:54.258Z,6.00
2022-12-28T05:09:21.069Z,6.00
2022-12-28T05:11:47.993Z,6.00
2022-12-28T05:14:14.894Z,6.00
2022-12-28T05:16:42.556Z,6.00
2022-12-28T05:19:09.237Z,6.10
2022-12-28T05:21:36.209Z,6.10
2022-12-28T05:24:02.996Z,6.10
2022-12-28T05:26:30.185Z,6.10
2022-12-28T05:28:58.735Z,6.10
2022-12-28T05:31:26.328Z,6.10
2022-12-28T05:33:55.043Z,6.10
2022-12-28T05:36:24.287Z,6.10
2022-12-28T05:38:51.816Z,6.10
2022-12-28T05:41:21.932Z,6.10
2022-12-28T05:43:49.033Z,6.20
2022-12-28T05:46:24.610Z,6.20
2022-12-28T05:48:51.926Z,6.20
2022-12-28T05:51:20.114Z,6.20
2022-12-28T05:53:47.412Z,6.30
2022-12-28T05:56:20.220Z,6.30
2022-12-28T05:58:52.563Z,6.30
2022-12-28T06:01:21.278Z,6.30
2022-12-28T06:03:52.283Z,6.30
2022-12-28T06:06:20.223Z,6.30
2022-12-28T06:08:48.375Z,6.40
2022-12-28T06:11:18.147Z,6.40
2022-12-28T06:13:45.189Z,6.40
2022-12-28T06:16:17.933Z,6.40
2022-12-28T06:18:45.249Z,6.40
2022-12-28T06:21:13.239Z,6.40
2022-12-28T06:23:40.627Z,6.40
2022-12-28T06:26:08.466Z,6.40
2022-12-28T06:28:38.647Z,6.40
2022-12-28T06:31:07.775Z,6.40
2022-12-28T06:33:34.936Z,6.40
2022-12-28T06:36:01.958Z,6.50
2022-12-28T06:38:31.218Z,6.50
2022-12-28T06:41:13.483Z,6.40
2022-12-28T06:43:41.947Z,6.50
2022-12-28T06:46:09.224Z,6.50
2022-12-28T06:48:37.022Z,6.50
2022-12-28T06:51:11.293Z,6.50
2022-12-28T06:53:38.713Z,6.50
2022-12-28T06:56:08.440Z,6.50
2022-12-28T06:58:35.153Z,6.50
2022-12-28T07:01:20.379Z,6.50
2022-12-28T07:03:49.296Z,6.50
2022-12-28T07:06:17.701Z,6.50
2022-12-28T07:08:44.993Z,6.50
2022-12-28T07:11:15.016Z,6.50
2022-12-28T07:13:42.149Z,6.60
2022-12-28T07:16:15.040Z,6.50
2022-12-28T07:18:42.361Z,6.50
2022-12-28T07:21:12.688Z,6.50
2022-12-28T07:23:39.492Z,6.50
2022-12-28T07:26:09.842Z,6.50
2022-12-28T07:28:40.811Z,6.40
2022-12-28T07:31:09.739Z,6.30
2022-12-28T07:33:37.620Z,6.30
2022-12-28T07:36:05.942Z,6.20
2022-12-28T07:38:32.851Z,6.20
2022-12-28T07:41:11.727Z,6.20
2022-12-28T07:43:38.850Z,6.10
2022-12-28T07:46:08.548Z,6.10
2022-12-28T07:48:36.548Z,6.10
2022-12-28T07:51:18.146Z,6.10
2022-12-28T07:53:46.989Z,6.10
2022-12-28T07:56:14.963Z,6.10
2022-12-28T08:01:09.932Z,6.10
2022-12-28T08:03:37.478Z,6.10
2022-12-28T08:06:10.186Z,6.20
2022-12-28T08:08:38.683Z,6.20
2022-12-28T08:11:07.264Z,6.20
2022-12-28T08:13:36.074Z,6.20
2022-12-28T08:16:03.251Z,6.20
2022-12-28T08:18:30.803Z,6.20
2022-12-28T08:21:06.764Z,6.20
2022-12-28T08:23:33.502Z,6.20
2022-12-28T08:26:24.317Z,6.20
2022-12-28T08:28:53.988Z,6.20
2022-12-28T08:31:23.617Z,6.10
2022-12-28T08:33:50.901Z,6.10
2022-12-28T08:36:18.073Z,6.10
2022-12-28T08:38:45.835Z,6.10
2022-12-28T08:41:15.225Z,6.20
2022-12-28T08:43:41.947Z,6.20
2022-12-28T08:46:12.954Z,6.20
2022-12-28T08:48:40.358Z,6.20
2022-12-28T08:51:09.926Z,6.20
2022-12-28T08:53:37.434Z,6.30
2022-12-28T08:56:12.275Z,6.30
2022-12-28T08:58:43.413Z,6.30
2022-12-28T09:01:14.446Z,6.30
2022-12-28T09:03:44.362Z,6.40
2022-12-28T09:06:14.390Z,6.40
2022-12-28T09:08:42.587Z,6.50
2022-12-28T09:11:13.722Z,6.50
2022-12-28T09:13:40.740Z,6.60
2022-12-28T09:16:10.525Z,6.60
2022-12-28T09:18:38.543Z,6.60
2022-12-28T09:21:28.289Z,6.70
2022-12-28T09:23:55.368Z,6.80
2022-12-28T09:26:24.734Z,6.80
2022-12-28T09:28:53.903Z,6.90
2022-12-28T09:31:22.250Z,6.90
2022-12-28T09:36:48.195Z,7.00
2022-12-28T09:39:20.810Z,7.10
2022-12-28T09:42:05.172Z,7.20
2022-12-28T09:45:02.769Z,7.30
2022-12-28T09:47:47.493Z,7.30
2022-12-28T09:50:17.247Z,7.40
2022-12-28T09:53:22.634Z,7.60
2022-12-28T09:56:26.372Z,7.70
2022-12-28T09:58:54.377Z,7.80
2022-12-28T10:01:22.284Z,7.90
2022-12-28T10:03:49.443Z,8.00
2022-12-28T10:06:21.261Z,8.00
2022-12-28T10:08:53.730Z,8.10
2022-12-28T10:11:26.391Z,8.10
2022-12-28T10:13:58.291Z,8.10
2022-12-28T10:16:40.972Z,8.10
2022-12-28T10:19:21.627Z,8.10
2022-12-28T10:22:03.188Z,8.20
2022-12-28T10:24:32.414Z,8.20
2022-12-28T10:27:02.263Z,8.20
2022-12-28T10:29:32.167Z,8.20
2022-12-28T10:32:02.582Z,8.30
2022-12-28T10:34:34.010Z,8.30
2022-12-28T10:37:19.678Z,8.30
2022-12-28T10:39:58.775Z,8.40
2022-12-28T10:42:43.431Z,8.40
2022-12-28T10:45:22.614Z,8.40
2022-12-28T10:47:55.545Z,8.40
2022-12-28T10:50:38.017Z,8.50
2022-12-28T10:53:05.272Z,8.60
2022-12-28T10:55:33.989Z,8.60
2022-12-28T10:58:30.785Z,8.60
2022-12-28T11:01:30.206Z,8.70
2022-12-28T11:03:59.144Z,8.70
2022-12-28T11:06:28.680Z,8.80
2022-12-28T11:09:15.049Z,8.90
2022-12-28T11:11:43.370Z,9.00
2022-12-28T11:14:19.321Z,9.00
2022-12-28T11:16:46.271Z,9.10
2022-12-28T11:19:13.172Z,9.30
2022-12-28T11:21:42.315Z,9.40
2022-12-28T11:24:16.304Z,9.40
2022-12-28T11:26:45.510Z,9.50
2022-12-28T11:29:14.838Z,9.60
2022-12-28T11:31:56.236Z,9.60
2022-12-28T11:34:27.468Z,9.60
2022-12-28T11:36:54.384Z,9.60
2022-12-28T11:39:26.831Z,9.60
2022-12-28T11:42:37.032Z,9.70
2022-12-28T11:44:48.904Z,9.70
2022-12-28T11:47:15.523Z,9.70
2022-12-28T11:49:43.991Z,9.70
2022-12-28T11:52:30.834Z,9.80
2022-12-28T11:55:25.280Z,9.80
2022-12-28T11:57:52.218Z,9.80
2022-12-28T12:00:22.724Z,9.80
2022-12-28T12:03:00.915Z,9.90
2022-12-28T12:05:37.249Z,9.90
2022-12-28T12:08:32.679Z,10.00
2022-12-28T12:11:18.126Z,10.10
2022-12-28T12:13:49.202Z,10.20
2022-12-28T12:16:45.049Z,10.20
2022-12-28T12:19:26.511Z,10.20
2022-12-28T12:22:19.674Z,10.20
2022-12-28T12:24:55.104Z,10.20
2022-12-28T12:27:28.114Z,10.20
2022-12-28T12:30:01.949Z,10.10
2022-12-28T12:32:43.647Z,10.20
2022-12-28T12:35:33.179Z,10.20
2022-12-28T12:38:26.062Z,10.20
2022-12-28T12:41:19.305Z,10.20
2022-12-28T12:44:05.504Z,10.20
2022-12-28T12:46:34.987Z,10.20
2022-12-28T12:49:27.426Z,10.30
2022-12-28T12:52:14.505Z,10.20
2022-12-28T12:54:47.017Z,10.20
2022-12-28T12:57:39.860Z,10.20
2022-12-28T13:00:16.600Z,10.20
2022-12-28T13:03:03.772Z,10.20
2022-12-28T13:05:31.337Z,10.20
2022-12-28T13:08:00.225Z,10.20
2022-12-28T13:10:34.416Z,10.20
2022-12-28T13:13:03.206Z,10.20
2022-12-28T13:15:31.199Z,10.10
2022-12-28T13:18:44.469Z,10.10
2022-12-28T13:21:12.582Z,10.10
2022-12-28T13:23:44.934Z,10.10
2022-12-28T13:26:14.326Z,10.10
2022-12-28T13:28:59.626Z,10.10
2022-12-28T13:31:33.431Z,10.10
2022-12-28T13:34:04.421Z,10.00
2022-12-28T13:36:31.698Z,10.00
2022-12-28T13:39:12.838Z,10.00
2022-12-28T13:41:51.698Z,10.00
2022-12-28T13:44:39.738Z,10.00
2022-12-28T13:47:12.022Z,10.00
2022-12-28T13:49:56.753Z,10.00
2022-12-28T13:52:50.787Z,10.00
2022-12-28T13:55:23.516Z,10.00
2022-12-28T13:57:59.244Z,10.00
2022-12-28T14:00:28.725Z,10.00
2022-12-28T14:02:56.148Z,10.00
2022-12-28T14:05:26.570Z,10.00
2022-12-28T14:07:55.792Z,10.00
2022-12-28T14:10:23.260Z,9.90
2022-12-28T14:12:50.665Z,9.90
2022-12-28T14:15:18.339Z,9.90
2022-12-28T14:17:47.672Z,9.90
2022-12-28T14:20:14.695Z,9.90
2022-12-28T14:22:41.659Z,9.90
2022-12-28T14:25:10.342Z,9.90
2022-12-28T14:27:45.118Z,9.90
2022-12-28T14:30:28.087Z,9.90
2022-12-28T14:32:56.004Z,9.90
2022-12-28T14:35:26.062Z,10.00
2022-12-28T14:37:57.008Z,9.90
2022-12-28T14:40:33.271Z,9.90
2022-12-28T14:43:28.571Z,9.90
2022-12-28T14:46:07.507Z,9.90
2022-12-28T14:48:44.819Z,9.90
2022-12-28T14:51:17.933Z,9.90
2022-12-28T14:53:45.444Z,9.90
2022-12-28T14:59:03.668Z,9.90
2022-12-28T15:00:26.592Z,9.90
2022-12-28T15:01:45.723Z,9.90
2022-12-28T15:04:35.849Z,10.00
2022-12-28T15:07:06.842Z,9.90
2022-12-28T15:09:34.042Z,10.00
2022-12-28T15:12:27.220Z,10.00
2022-12-28T15:14:53.959Z,10.00
2022-12-28T15:17:20.699Z,10.00
2022-12-28T15:19:47.427Z,10.00
2022-12-28T15:22:14.259Z,10.00
2022-12-28T15:24:45.145Z,9.90
2022-12-28T15:27:12.359Z,9.90
2022-12-28T15:30:04.166Z,10.00
2022-12-28T15:32:25.798Z,9.90
2022-12-28T15:34:52.546Z,9.90
2022-12-28T15:37:19.278Z,9.90
2022-12-28T15:39:46.098Z,9.90
2022-12-28T15:42:12.834Z,9.90
2022-12-28T15:44:39.744Z,9.90
2022-12-28T15:47:06.912Z,9.90
2022-12-28T15:49:33.658Z,9.90
2022-12-28T15:52:00.498Z,9.90
2022-12-28T15:54:27.212Z,9.90
2022-12-28T15:56:55.573Z,9.80
2022-12-28T15:59:22.316Z,9.80
2022-12-28T16:01:49.334Z,9.80
2022-12-28T16:04:16.346Z,9.80
2022-12-28T16:06:44.929Z,9.70
2022-12-28T16:09:13.164Z,9.70
2022-12-28T16:11:40.855Z,9.70
2022-12-28T16:14:12.802Z,9.70
2022-12-28T16:16:40.536Z,9.70
2022-12-28T16:19:08.873Z,9.60
2022-12-28T16:21:36.159Z,9.60
2022-12-28T16:24:03.336Z,9.60
2022-12-28T16:26:30.030Z,9.60
2022-12-28T16:28:58.648Z,9.60
2022-12-28T16:31:27.181Z,9.50
2022-12-28T16:33:55.605Z,9.50
2022-12-28T16:36:22.933Z,9.40
2022-12-28T16:38:50.059Z,9.40
2022-12-28T16:41:18.312Z,9.40
2022-12-28T16:43:46.727Z,9.30
2022-12-28T16:46:13.769Z,9.30
2022-12-28T16:48:40.778Z,9.30
2022-12-28T16:51:08.199Z,9.20
2022-12-28T16:53:36.231Z,9.20
2022-12-28T16:56:04.956Z,9.20
2022-12-28T16:58:32.226Z,9.20
2022-12-28T17:01:09.113Z,9.20
2022-12-28T17:03:37.331Z,9.20
2022-12-28T17:06:04.774Z,9.10
2022-12-28T17:08:33.733Z,9.20
2022-12-28T17:11:00.412Z,9.10
2022-12-28T17:13:27.123Z,9.10
2022-12-28T17:15:53.880Z,9.10
2022-12-28T17:18:20.677Z,9.10
2022-12-28T17:20:48.143Z,9.10
2022-12-28T17:23:14.794Z,9.10
2022-12-28T17:25:41.632Z,9.10
2022-12-28T17:28:08.676Z,9.10
2022-12-28T17:30:35.338Z,9.10
2022-12-28T17:33:02.063Z,9.10
2022-12-28T17:35:28.864Z,9.10
2022-12-28T17:37:55.611Z,9.10
2022-12-28T17:40:22.335Z,9.10
2022-12-28T17:42:49.012Z,9.10
2022-12-28T17:45:15.746Z,9.10
2022-12-28T17:47:42.539Z,9.10
2022-12-28T17:50:09.522Z,9.10
2022-12-28T17:52:36.312Z,9.10
2022-12-28T17:55:03.619Z,9.10
2022-12-28T17:57:35.279Z,9.10
2022-12-28T18:00:06.510Z,9.10
2022-12-28T18:02:33.693Z,9.10
2022-12-28T18:05:00.644Z,9.00
2022-12-28T18:07:27.672Z,9.10
2022-12-28T18:09:54.869Z,9.10
2022-12-28T18:12:21.734Z,9.00
2022-12-28T18:14:48.478Z,9.00
2022-12-28T18:17:19.104Z,9.00
2022-12-28T18:19:46.033Z,9.00
2022-12-28T18:22:12.729Z,9.00
2022-12-28T18:24:39.580Z,9.00
2022-12-28T18:27:06.516Z,9.00
2022-12-28T18:29:33.205Z,8.90
2022-12-28T18:31:59.987Z,8.90
2022-12-28T18:34:26.838Z,8.90
2022-12-28T18:36:53.664Z,8.80
2022-12-28T18:39:20.505Z,8.80
2022-12-28T18:41:47.334Z,8.80
2022-12-28T18:44:14.284Z,8.70
2022-12-28T18:46:41.468Z,8.80
2022-12-28T18:49:08.242Z,8.80
2022-12-28T18:51:34.974Z,8.70
2022-12-28T18:54:01.780Z,8.70
2022-12-28T18:56:28.587Z,8.70
2022-12-28T18:58:56.289Z,8.70
2022-12-28T19:02:05.895Z,8.80
2022-12-28T19:04:12.683Z,8.70
2022-12-28T19:06:39.699Z,8.70
2022-12-28T19:09:07.787Z,8.70
2022-12-28T19:11:35.685Z,8.70
2022-12-28T19:14:04.335Z,8.70
2022-12-28T19:16:32.230Z,8.70
2022-12-28T19:19:00.045Z,8.70
2022-12-28T19:21:29.482Z,8.70
2022-12-28T19:23:58.645Z,8.70
2022-12-28T19:26:25.645Z,8.60
2022-12-28T19:28:52.868Z,8.60
2022-12-28T19:31:19.846Z,8.60
2022-12-28T19:33:47.294Z,8.50
2022-12-28T19:36:14.118Z,8.50
2022-12-28T19:38:40.875Z,8.50
2022-12-28T19:41:10.088Z,8.50
2022-12-28T19:43:36.915Z,8.50
2022-12-28T19:46:14.823Z,8.40
2022-12-28T19:48:41.880Z,8.40
2022-12-28T19:51:09.200Z,8.40
2022-12-28T19:53:37.352Z,8.40
2022-12-28T19:56:07.074Z,8.40
2022-12-28T19:58:36.031Z,8.40
2022-12-28T20:01:07.665Z,8.30
2022-12-28T20:03:34.706Z,8.30
2022-12-28T20:06:18.229Z,8.30
2022-12-28T20:08:46.404Z,8.30
2022-12-28T20:11:14.123Z,8.30
2022-12-28T20:13:41.533Z,8.30
2022-12-28T20:16:09.492Z,8.30
2022-12-28T20:18:36.538Z,8.30
2022-12-28T20:21:19.061Z,8.30
2022-12-28T20:23:48.121Z,8.30
2022-12-28T20:26:15.722Z,8.30
2022-12-28T20:28:42.608Z,8.30
2022-12-28T20:31:12.785Z,8.30
2022-12-28T20:33:40.270Z,8.30
2022-12-28T20:36:12.626Z,8.40
2022-12-28T20:38:39.693Z,8.30
2022-12-28T20:41:30.879Z,8.30
2022-12-28T20:43:58.649Z,8.30
2022-12-28T20:46:25.618Z,8.30
2022-12-28T20:48:52.647Z,8.30
2022-12-28T20:51:19.323Z,8.30
2022-12-28T20:53:47.339Z,8.30
2022-12-28T20:56:14.125Z,8.30
2022-12-28T20:58:40.875Z,8.30
2022-12-28T21:01:10.821Z,8.40
2022-12-28T21:03:38.045Z,8.30
2022-12-28T21:06:05.634Z,8.40
2022-12-28T21:08:33.135Z,8.30
2022-12-28T21:11:00.115Z,8.40
2022-12-28T21:13:27.292Z,8.30
2022-12-28T21:15:54.237Z,8.30
2022-12-28T21:18:21.419Z,8.30
2022-12-28T21:20:58.896Z,8.30
2022-12-28T21:23:26.475Z,8.40
2022-12-28T21:25:53.507Z,8.40
2022-12-28T21:28:20.238Z,8.40
2022-12-28T21:30:54.132Z,8.40
2022-12-28T21:33:20.999Z,8.40
2022-12-28T21:36:02.258Z,8.40
2022-12-28T21:38:29.790Z,8.40
2022-12-28T21:41:02.087Z,8.40
2022-12-28T21:43:30.183Z,8.40
2022-12-28T21:46:02.900Z,8.50
2022-12-28T21:48:34.437Z,8.50
2022-12-28T21:51:04.935Z,8.50
2022-12-28T21:53:31.674Z,8.50
2022-12-28T21:55:58.326Z,8.50
2022-12-28T21:58:25.079Z,8.50
2022-12-28T22:01:15.893Z,8.50
2022-12-28T22:04:01.111Z,8.60
2022-12-28T22:06:27.761Z,8.60
2022-12-28T22:09:13.054Z,8.60
2022-12-28T22:11:58.414Z,8.60
2022-12-28T22:14:25.243Z,8.60
2022-12-28T22:16:52.046Z,8.60
2022-12-28T22:19:18.769Z,8.70
2022-12-28T22:21:45.571Z,8.70
2022-12-28T22:24:12.352Z,8.80
2022-12-28T22:26:39.177Z,8.80
2022-12-28T22:29:05.915Z,8.80
2022-12-28T22:31:43.359Z,8.80
2022-12-28T22:34:10.180Z,8.90
2022-12-28T22:36:36.888Z,8.90
2022-12-28T22:39:03.721Z,8.90
2022-12-28T22:41:30.467Z,8.90
2022-12-28T22:43:57.214Z,8.90
2022-12-28T22:46:23.995Z,9.00
2022-12-28T22:48:50.907Z,9.00
2022-12-28T22:51:17.642Z,9.00
2022-12-28T22:53:44.464Z,9.00
2022-12-28T22:56:19.805Z,9.00
2022-12-28T22:58:47.859Z,9.10
2022-12-28T23:01:17.923Z,9.10
2022-12-28T23:03:47.325Z,9.10
2022-12-28T23:06:17.235Z,9.10
2022-12-28T23:08:44.274Z,9.20
2022-12-28T23:11:32.704Z,9.20
2022-12-28T23:14:20.031Z,9.20
2022-12-28T23:16:47.140Z,9.20
2022-12-28T23:19:32.516Z,9.20
2022-12-28T23:22:18.883Z,9.20
2022-12-28T23:25:04.430Z,9.20
2022-12-28T23:27:35.607Z,9.20
2022-12-28T23:30:03.584Z,9.20
2022-12-28T23:32:30.384Z,9.30
2022-12-28T23:34:57.084Z,9.30
2022-12-28T23:37:23.888Z,9.30
2022-12-28T23:39:50.660Z,9.30
2022-12-28T23:42:17.402Z,9.30
2022-12-28T23:44:46.142Z,9.40
2022-12-28T23:47:12.943Z,9.40
2022-12-28T23:49:39.720Z,9.40
2022-12-28T23:52:06.532Z,9.40
2022-12-28T23:54:33.223Z,9.40
2022-12-28T23:56:59.942Z,9.40
2022-12-28T23:59:26.598Z,9.40
